Muro, Spain
Current Conditions -  °F | °C
As of 8:00 PM on Thursday 18 Dec 2014 (Local Time) from LEPA Reporting Station
Clear Clear  
Wind Chill: 57°   Ceiling: Unl
Heat Index: 57°   Visibility: 6mi
Dew Point: 52°   Wind: 1mph
Humidity: 82%   Direction: NA
Pressure: 30.3"   Gusts: NA
Location:  39.74°N, 3.06°E
Report Text: LEPA 181900Z VRB01KT CAVOK 14/11 Q1026 NOSIG
Loading
Personal Weather Stations






























Interactive Weather Map New forecast layout! Learn more

10-Day Weather Forecast

Advertisements
Track Severe Weather on mobile